Time;durP1;ratioP1;P1;durP2;ratioP2;P2;SDS_P1;SDS_P2;PMS_P1;PMS_P2;Temp;Humidity;BMP_temperature;BMP_pressure;BME280_temperature;BME280_humidity;BME280_pressure;Samples;Min_cycle;Max_cycle;Signal;HPM_P1;HPM_P2
2021/01/22 00:00:28;;;;;;;0.67;0.67;;;10.70;99.90;;;;;;5044878;28;20638;-95
2021/01/22 00:02:55;;;;;;;1.30;0.80;;;10.70;99.90;;;;;;5042826;28;20634;-94
2021/01/22 00:05:21;;;;;;;0.80;0.80;;;10.80;99.90;;;;;;5042877;28;20659;-93
2021/01/22 00:07:48;;;;;;;1.53;0.70;;;10.80;99.90;;;;;;5030566;28;20645;-94
2021/01/22 00:10:14;;;;;;;0.90;0.77;;;10.90;99.90;;;;;;5049348;28;20627;-94
2021/01/22 00:12:40;;;;;;;1.23;1.13;;;11.00;99.90;;;;;;5044131;28;20646;-93
2021/01/22 00:15:08;;;;;;;1.30;1.00;;;11.00;99.90;;;;;;5043965;28;21313;-94
2021/01/22 00:17:35;;;;;;;0.70;0.70;;;11.00;99.90;;;;;;5049724;28;20630;-93
2021/01/22 00:20:03;;;;;;;1.70;0.80;;;11.00;99.90;;;;;;5021674;28;20851;-94
2021/01/22 00:22:31;;;;;;;0.90;0.90;;;10.90;99.90;;;;;;5045405;28;20653;-96
2021/01/22 00:24:58;;;;;;;1.10;1.00;;;10.90;99.90;;;;;;5049239;28;20657;-95
2021/01/22 00:27:24;;;;;;;0.60;0.60;;;10.80;99.90;;;;;;5041871;28;20662;-95
2021/01/22 00:29:51;;;;;;;0.93;0.80;;;10.80;99.90;;;;;;5049981;28;20670;-95
2021/01/22 00:32:17;;;;;;;0.80;0.80;;;10.70;99.90;;;;;;5040048;28;20643;-94
2021/01/22 00:34:44;;;;;;;0.70;0.60;;;10.70;99.90;;;;;;5048805;28;20678;-93
2021/01/22 00:37:12;;;;;;;0.80;0.80;;;10.60;99.90;;;;;;5044824;28;20968;-92
2021/01/22 00:39:38;;;;;;;0.77;0.77;;;10.60;99.90;;;;;;5046511;28;20634;-92
2021/01/22 00:42:07;;;;;;;0.60;0.60;;;10.50;99.90;;;;;;5042219;28;20630;-91
2021/01/22 00:44:33;;;;;;;1.07;0.80;;;10.50;99.90;;;;;;5048282;28;20657;-93
2021/01/22 00:47:01;;;;;;;1.13;0.73;;;10.40;99.90;;;;;;5045915;28;20652;-91
2021/01/22 00:49:27;;;;;;;1.30;0.90;;;10.30;99.90;;;;;;5046440;28;21021;-91
2021/01/22 00:51:54;;;;;;;0.80;0.67;;;10.30;99.90;;;;;;5043166;28;20630;-90
2021/01/22 00:54:21;;;;;;;1.00;0.70;;;10.30;99.90;;;;;;5041934;28;20631;-90
2021/01/22 00:56:47;;;;;;;0.90;0.90;;;10.30;99.90;;;;;;5043220;28;20644;-91
2021/01/22 00:59:13;;;;;;;1.30;0.90;;;10.20;99.90;;;;;;5044407;28;20684;-91
2021/01/22 01:01:41;;;;;;;1.57;1.00;;;10.10;99.90;;;;;;5042437;28;20640;-91
2021/01/22 01:04:07;;;;;;;0.80;0.60;;;10.10;99.90;;;;;;5037197;28;20634;-90
2021/01/22 01:06:35;;;;;;;2.73;0.80;;;10.10;99.90;;;;;;5025453;28;20638;-91
2021/01/22 01:09:01;;;;;;;0.50;0.50;;;10.10;99.90;;;;;;5045497;28;20665;-92
2021/01/22 01:11:29;;;;;;;3.80;0.60;;;10.20;99.90;;;;;;5043384;28;20655;-91
2021/01/22 01:13:55;;;;;;;0.80;0.53;;;10.20;99.90;;;;;;5043729;28;20668;-92
2021/01/22 01:16:23;;;;;;;0.70;0.60;;;10.20;99.90;;;;;;5044323;28;20605;-92
2021/01/22 01:18:49;;;;;;;0.67;0.60;;;10.20;99.90;;;;;;5044589;28;20632;-92
2021/01/22 01:21:15;;;;;;;0.77;0.77;;;10.30;99.90;;;;;;5041742;28;20650;-90
2021/01/22 01:23:43;;;;;;;0.87;0.50;;;10.20;99.90;;;;;;5044619;28;21204;-91
2021/01/22 01:26:09;;;;;;;0.60;0.60;;;10.10;99.90;;;;;;5045700;28;20640;-91
2021/01/22 01:28:37;;;;;;;4.63;0.60;;;10.10;99.90;;;;;;5047381;28;20711;-90
2021/01/22 01:31:03;;;;;;;1.00;0.50;;;10.20;99.90;;;;;;5036995;28;20639;-92
2021/01/22 01:33:30;;;;;;;0.87;0.57;;;10.20;99.90;;;;;;5042507;28;20732;-91
2021/01/22 01:35:56;;;;;;;0.60;0.60;;;10.20;99.90;;;;;;5045631;28;20648;-91
2021/01/22 01:38:22;;;;;;;0.57;0.57;;;10.20;99.90;;;;;;5048357;28;20610;-91
2021/01/22 01:40:49;;;;;;;0.80;0.80;;;10.10;99.90;;;;;;5046079;28;21152;-91
2021/01/22 01:43:19;;;;;;;0.70;0.70;;;10.10;99.90;;;;;;5042769;28;20732;-91
2021/01/22 01:45:46;;;;;;;0.60;0.50;;;10.30;99.90;;;;;;5050228;28;20714;-92
2021/01/22 01:48:13;;;;;;;0.50;0.50;;;10.30;99.90;;;;;;5046332;28;21284;-91
2021/01/22 01:50:41;;;;;;;1.27;0.60;;;10.40;99.90;;;;;;5042372;28;20614;-91
2021/01/22 01:53:08;;;;;;;0.53;0.50;;;10.40;99.90;;;;;;5040232;28;20699;-92
2021/01/22 01:55:36;;;;;;;0.97;0.63;;;10.40;99.90;;;;;;5052089;28;20668;-91
2021/01/22 01:58:03;;;;;;;0.50;0.40;;;10.40;99.90;;;;;;5030441;28;20618;-91
2021/01/22 02:00:30;;;;;;;0.60;0.50;;;10.40;99.90;;;;;;5052907;28;20687;-91
2021/01/22 02:02:57;;;;;;;0.87;0.67;;;10.30;99.90;;;;;;5027460;28;20972;-91
2021/01/22 02:05:26;;;;;;;1.47;0.70;;;10.40;99.90;;;;;;5052760;28;20653;-90
2021/01/22 02:07:53;;;;;;;1.40;0.60;;;10.40;99.90;;;;;;5053394;28;20660;-91
2021/01/22 02:10:20;;;;;;;1.30;0.50;;;10.30;99.90;;;;;;5047131;28;20724;-90
2021/01/22 02:12:50;;;;;;;0.80;0.53;;;10.30;99.90;;;;;;5047169;28;21195;-91
2021/01/22 02:15:18;;;;;;;1.73;0.70;;;10.30;99.90;;;;;;5038911;28;20713;-90
2021/01/22 02:17:46;;;;;;;0.80;0.73;;;10.30;99.90;;;;;;5047946;28;20613;-91
2021/01/22 02:20:30;;;;;;;0.67;0.67;;;10.20;99.90;;;;;;5045169;28;20642;-89
2021/01/22 02:22:56;;;;;;;1.27;0.67;;;10.30;99.90;;;;;;5047182;28;21214;-91
2021/01/22 02:25:29;;;;;;;2.83;0.50;;;10.40;99.90;;;;;;5047389;28;21025;-90
2021/01/22 02:27:56;;;;;;;1.00;0.90;;;10.40;99.90;;;;;;5043744;28;20634;-89
2021/01/22 02:30:23;;;;;;;1.27;0.83;;;10.40;99.90;;;;;;5037319;28;20627;-93
2021/01/22 02:32:50;;;;;;;0.90;0.70;;;10.40;99.90;;;;;;5029661;28;20687;-90
2021/01/22 02:35:20;;;;;;;0.53;0.50;;;10.50;99.90;;;;;;5043149;28;20659;-91
2021/01/22 02:37:49;;;;;;;3.00;0.67;;;10.40;99.90;;;;;;5033600;28;20981;-90
2021/01/22 02:40:18;;;;;;;0.93;0.83;;;10.40;99.90;;;;;;5045836;28;20619;-89
2021/01/22 02:42:48;;;;;;;1.27;0.73;;;10.50;99.90;;;;;;5050944;28;20702;-90
2021/01/22 02:45:17;;;;;;;1.70;0.80;;;10.50;99.90;;;;;;5048551;28;20728;-91
2021/01/22 02:47:45;;;;;;;1.20;0.87;;;10.50;99.90;;;;;;5050337;28;20692;-89
2021/01/22 02:50:15;;;;;;;1.30;0.53;;;10.50;99.90;;;;;;5061513;28;20629;-91
2021/01/22 02:52:41;;;;;;;1.30;0.63;;;10.50;99.90;;;;;;5060020;28;20630;-91
2021/01/22 02:55:10;;;;;;;1.00;0.80;;;10.50;99.90;;;;;;5069278;28;20681;-90
2021/01/22 02:57:43;;;;;;;1.90;0.90;;;10.50;99.90;;;;;;5065078;28;20626;-91
2021/01/22 03:00:14;;;;;;;1.00;0.70;;;10.50;99.90;;;;;;5045392;28;20684;-90
2021/01/22 03:02:48;;;;;;;1.53;1.17;;;10.50;99.90;;;;;;5048416;28;21194;-90
2021/01/22 03:05:16;;;;;;;4.43;0.97;;;10.40;99.90;;;;;;5045576;28;20652;-91
2021/01/22 03:07:46;;;;;;;2.60;0.90;;;10.40;99.90;;;;;;5042094;28;20662;-92
2021/01/22 03:10:16;;;;;;;2.57;0.80;;;10.40;99.90;;;;;;5044102;28;20638;-93
2021/01/22 03:12:49;;;;;;;4.67;1.53;;;10.40;99.90;;;;;;5028069;28;21250;-92
2021/01/22 03:15:17;;;;;;;1.90;0.80;;;10.40;99.90;;;;;;5043876;28;21274;-91
2021/01/22 03:17:44;;;;;;;3.20;1.37;;;10.40;99.90;;;;;;5053642;28;20633;-92
2021/01/22 03:20:12;;;;;;;2.70;1.30;;;10.30;99.90;;;;;;5041777;28;20622;-93
2021/01/22 03:22:39;;;;;;;1.20;0.70;;;10.40;99.90;;;;;;5049911;28;20633;-91
2021/01/22 03:25:07;;;;;;;2.53;1.07;;;10.30;99.90;;;;;;5044695;28;20799;-91
2021/01/22 03:27:33;;;;;;;2.07;0.87;;;10.20;99.90;;;;;;5044336;28;20632;-91
2021/01/22 03:30:00;;;;;;;2.67;0.97;;;10.20;99.90;;;;;;5041604;28;20941;-92
2021/01/22 03:32:26;;;;;;;2.93;1.03;;;10.20;99.90;;;;;;5041682;28;20626;-92
2021/01/22 03:34:53;;;;;;;2.60;1.00;;;10.10;99.90;;;;;;5047162;28;20645;-94
2021/01/22 03:37:20;;;;;;;4.33;1.17;;;10.10;99.90;;;;;;5043213;28;20622;-94
2021/01/22 03:39:46;;;;;;;3.67;1.20;;;10.40;99.90;;;;;;5047942;28;20640;-94
2021/01/22 03:42:13;;;;;;;3.17;1.23;;;10.10;99.90;;;;;;5043163;28;20618;-93
2021/01/22 03:44:40;;;;;;;4.10;1.13;;;10.10;99.90;;;;;;5040023;28;20666;-92
2021/01/22 03:47:07;;;;;;;7.37;1.47;;;10.10;99.90;;;;;;5027497;28;20629;-93
2021/01/22 03:49:33;;;;;;;5.70;2.10;;;10.10;99.90;;;;;;5046102;28;20662;-92
2021/01/22 03:52:01;;;;;;;5.60;1.40;;;10.10;99.90;;;;;;5044263;28;20631;-93
2021/01/22 03:54:27;;;;;;;5.53;1.40;;;10.10;99.90;;;;;;5043765;28;20662;-93
2021/01/22 03:56:54;;;;;;;3.33;1.40;;;10.10;99.90;;;;;;5044129;28;20634;-93
2021/01/22 04:02:02;;;;;;;4.50;1.60;;;10.10;99.90;;;;;;5045926;28;20614;-92
2021/01/22 04:04:29;;;;;;;6.87;1.60;;;9.90;99.90;;;;;;5045513;28;20699;-91
2021/01/22 04:06:55;;;;;;;2.60;0.70;;;9.90;99.90;;;;;;5041214;28;20634;-91
2021/01/22 04:09:23;;;;;;;7.73;0.80;;;10.00;99.90;;;;;;5036778;28;20735;-91
2021/01/22 04:11:49;;;;;;;1.60;1.00;;;9.90;99.90;;;;;;5041810;28;20648;-91
2021/01/22 04:14:15;;;;;;;1.50;0.93;;;9.90;99.90;;;;;;5038390;28;21231;-91
2021/01/22 04:16:41;;;;;;;2.60;1.57;;;9.90;99.90;;;;;;5041893;28;20633;-92
2021/01/22 04:19:08;;;;;;;4.23;2.97;;;9.90;99.90;;;;;;5048601;28;20647;-93
2021/01/22 04:21:34;;;;;;;7.67;2.00;;;10.00;99.90;;;;;;5056421;28;20645;-93
2021/01/22 04:24:00;;;;;;;5.40;1.30;;;10.00;99.90;;;;;;5039889;28;20680;-93
2021/01/22 04:26:28;;;;;;;4.70;1.30;;;10.00;99.90;;;;;;5040294;28;20671;-92
2021/01/22 04:28:57;;;;;;;2.07;1.20;;;9.90;99.90;;;;;;5043490;28;20665;-92
2021/01/22 04:31:23;;;;;;;5.10;1.30;;;10.00;99.90;;;;;;5041270;28;21165;-92
2021/01/22 04:33:50;;;;;;;4.30;1.20;;;10.00;99.90;;;;;;5048180;28;20657;-92
2021/01/22 04:36:16;;;;;;;4.23;1.47;;;9.90;99.90;;;;;;5048802;28;20993;-92
2021/01/22 04:38:43;;;;;;;2.33;1.30;;;10.00;99.90;;;;;;5060538;28;20610;-92
2021/01/22 04:41:11;;;;;;;1.80;1.10;;;10.00;99.90;;;;;;5065807;28;20630;-93
2021/01/22 04:43:44;;;;;;;2.37;1.27;;;10.00;99.90;;;;;;5064486;28;20745;-93
2021/01/22 04:46:11;;;;;;;1.60;0.87;;;10.00;99.90;;;;;;5042122;28;20661;-90
2021/01/22 04:48:39;;;;;;;2.07;1.03;;;10.10;99.90;;;;;;5042020;28;20684;-92
2021/01/22 04:51:06;;;;;;;2.60;1.00;;;10.10;99.90;;;;;;5063274;28;20622;-92
2021/01/22 04:53:35;;;;;;;3.07;0.90;;;10.10;99.90;;;;;;5058986;28;20659;-91
2021/01/22 04:56:03;;;;;;;2.00;1.00;;;10.20;99.90;;;;;;5063674;28;20624;-93
2021/01/22 04:58:33;;;;;;;1.40;0.80;;;10.20;99.90;;;;;;5068295;28;20718;-93
2021/01/22 05:01:04;;;;;;;1.30;1.10;;;10.20;99.90;;;;;;5066765;28;20669;-92
2021/01/22 05:03:33;;;;;;;2.50;2.30;;;10.10;99.90;;;;;;5061500;28;21307;-93
2021/01/22 05:06:07;;;;;;;1.03;0.80;;;10.10;99.90;;;;;;5065004;28;20675;-93
2021/01/22 05:08:34;;;;;;;1.13;0.77;;;10.10;99.90;;;;;;5061966;28;20638;-91
2021/01/22 05:11:05;;;;;;;4.17;0.90;;;10.00;99.90;;;;;;5068221;28;20641;-94
2021/01/22 05:13:32;;;;;;;1.57;1.00;;;10.00;99.90;;;;;;5062251;28;20668;-90
2021/01/22 05:16:13;;;;;;;1.10;0.60;;;10.00;99.90;;;;;;5076488;28;20700;-89
2021/01/22 05:18:40;;;;;;;1.93;1.00;;;9.90;99.90;;;;;;5072541;28;20669;-90
2021/01/22 05:21:07;;;;;;;1.37;0.67;;;10.00;99.90;;;;;;5061769;28;20621;-91
2021/01/22 05:23:34;;;;;;;1.30;0.90;;;10.00;99.90;;;;;;5050089;28;20665;-89
2021/01/22 05:26:03;;;;;;;2.23;0.70;;;10.10;99.90;;;;;;5049526;28;20629;-91
2021/01/22 05:28:34;;;;;;;0.90;0.60;;;10.10;99.90;;;;;;5050283;28;20668;-89
2021/01/22 05:31:01;;;;;;;2.20;0.87;;;10.20;99.90;;;;;;5050633;28;20655;-90
2021/01/22 05:33:29;;;;;;;1.27;0.70;;;10.10;99.90;;;;;;5050658;28;21189;-90
2021/01/22 05:35:55;;;;;;;0.97;0.80;;;10.10;99.90;;;;;;5055131;28;20756;-89
2021/01/22 05:38:41;;;;;;;1.13;0.93;;;10.10;99.90;;;;;;5067967;28;20648;-90
2021/01/22 05:41:07;;;;;;;2.10;1.10;;;10.10;99.90;;;;;;5065887;28;20633;-90
2021/01/22 05:43:41;;;;;;;2.30;0.80;;;10.10;99.90;;;;;;5061998;28;20704;-90
2021/01/22 05:46:12;;;;;;;1.20;0.67;;;10.00;99.90;;;;;;5065933;28;20815;-89
2021/01/22 05:48:41;;;;;;;2.03;1.00;;;10.10;99.90;;;;;;5068447;28;20697;-90
2021/01/22 05:51:11;;;;;;;1.33;1.00;;;10.10;99.90;;;;;;5065438;28;20699;-91
2021/01/22 05:53:45;;;;;;;1.03;0.83;;;10.30;99.90;;;;;;5060380;28;20676;-90
2021/01/22 05:56:13;;;;;;;1.17;0.60;;;10.20;99.90;;;;;;5057874;28;21164;-89
2021/01/22 05:58:42;;;;;;;0.97;0.87;;;10.20;99.90;;;;;;5043130;28;20618;-89
2021/01/22 06:01:11;;;;;;;2.60;1.00;;;10.20;99.90;;;;;;5049828;28;20669;-88
2021/01/22 06:03:39;;;;;;;1.53;1.30;;;10.20;99.90;;;;;;5045745;28;20715;-89
2021/01/22 06:06:06;;;;;;;3.90;1.10;;;10.20;99.90;;;;;;5052001;28;20617;-88
2021/01/22 06:08:33;;;;;;;1.00;0.90;;;10.20;99.90;;;;;;5043468;28;20684;-90
2021/01/22 06:11:01;;;;;;;1.23;0.70;;;10.40;99.90;;;;;;5047508;28;20689;-89
2021/01/22 06:13:30;;;;;;;1.10;0.77;;;10.30;99.90;;;;;;5054847;28;20625;-90
2021/01/22 06:15:58;;;;;;;1.50;0.53;;;10.30;99.90;;;;;;5059436;28;20618;-89
2021/01/22 06:18:29;;;;;;;1.93;1.00;;;10.20;99.90;;;;;;5056653;28;20665;-92
2021/01/22 06:21:04;;;;;;;1.47;0.60;;;10.20;99.90;;;;;;5048424;28;21168;-92
2021/01/22 06:23:34;;;;;;;0.97;0.97;;;10.20;99.90;;;;;;5050486;28;20667;-92
2021/01/22 06:26:02;;;;;;;1.23;0.80;;;10.10;99.90;;;;;;5048240;28;20717;-92
2021/01/22 06:28:35;;;;;;;2.60;0.83;;;10.20;99.90;;;;;;5052614;28;20699;-94
2021/01/22 06:31:04;;;;;;;1.20;0.63;;;10.20;99.90;;;;;;5049334;28;20629;-94
2021/01/22 06:33:36;;;;;;;0.97;0.80;;;10.20;99.90;;;;;;5051637;28;20636;-94
2021/01/22 06:36:09;;;;;;;1.43;0.80;;;10.10;99.90;;;;;;5046708;28;20642;-95
2021/01/22 06:38:40;;;;;;;1.23;0.53;;;10.20;99.90;;;;;;5048568;28;20641;-96
2021/01/22 06:41:11;;;;;;;2.00;1.00;;;10.10;99.90;;;;;;5053236;28;20626;-95
2021/01/22 06:43:42;;;;;;;1.07;0.90;;;10.10;99.90;;;;;;5058851;28;20745;-96
2021/01/22 06:53:37;;;;;;;3.73;0.90;;;10.00;99.90;;;;;;5058408;28;20586;-96
2021/01/22 06:56:10;;;;;;;3.03;0.83;;;10.10;99.90;;;;;;5045579;28;20722;-92
2021/01/22 06:58:36;;;;;;;0.60;0.60;;;10.00;99.90;;;;;;5046322;28;20643;-93
2021/01/22 07:01:06;;;;;;;0.70;0.60;;;10.10;99.90;;;;;;5052186;28;20952;-92
2021/01/22 07:03:50;;;;;;;0.80;0.70;;;10.00;99.90;;;;;;5031835;28;20627;-92
2021/01/22 07:06:56;;;;;;;2.00;0.60;;;10.00;99.90;;;;;;5066561;28;20642;-95
2021/01/22 07:17:40;;;;;;;3.53;0.67;;;9.90;99.90;;;;;;5076687;28;20642;-96
2021/01/22 07:20:47;;;;;;;1.73;0.87;;;9.90;99.90;;;;;;5058737;28;20622;-95
2021/01/22 07:23:18;;;;;;;1.33;0.77;;;9.80;99.90;;;;;;5054294;28;20664;-96
2021/01/22 07:36:52;;;;;;;1.13;0.70;;;9.90;99.90;;;;;;5212457;22;20675;-96
2021/01/22 07:39:29;;;;;;;1.33;1.03;;;9.90;99.90;;;;;;5135292;28;20642;-96
2021/01/22 07:42:07;;;;;;;3.63;2.70;;;10.00;99.90;;;;;;5084815;28;21032;-96
2021/01/22 07:44:39;;;;;;;1.47;1.03;;;9.90;99.90;;;;;;5114091;28;20708;-92
2021/01/22 07:47:07;;;;;;;1.60;1.10;;;10.00;99.90;;;;;;5096536;28;20647;-92
2021/01/22 07:49:34;;;;;;;1.60;0.90;;;10.10;99.90;;;;;;5084824;28;20755;-94
2021/01/22 07:52:07;;;;;;;3.80;1.00;;;10.20;99.90;;;;;;5091323;28;20715;-94
2021/01/22 07:54:43;;;;;;;2.80;1.60;;;10.10;99.90;;;;;;5084265;28;20767;-95
2021/01/22 07:57:21;;;;;;;2.23;1.10;;;10.10;99.90;;;;;;5084711;28;20640;-95
2021/01/22 07:59:50;;;;;;;2.83;1.70;;;10.20;99.90;;;;;;5084637;28;20627;-95
2021/01/22 08:02:24;;;;;;;3.13;1.60;;;10.30;99.90;;;;;;5090749;28;20629;-96
2021/01/22 08:04:58;;;;;;;1.63;0.90;;;10.40;99.90;;;;;;5094567;28;20664;-95
2021/01/22 08:07:49;;;;;;;5.47;1.30;;;10.50;99.90;;;;;;5068650;28;20628;-94
2021/01/22 08:10:16;;;;;;;2.13;0.83;;;10.50;99.90;;;;;;5084197;28;20604;-95
2021/01/22 08:12:56;;;;;;;3.10;1.33;;;10.60;99.90;;;;;;5088699;28;20652;-96
2021/01/22 08:15:27;;;;;;;2.37;1.00;;;10.60;99.90;;;;;;5089055;28;20656;-95
2021/01/22 08:18:18;;;;;;;1.50;0.80;;;10.80;99.90;;;;;;5113089;27;20721;-95
2021/01/22 08:20:51;;;;;;;2.30;0.80;;;10.90;99.70;;;;;;5088194;28;20628;-95
2021/01/22 08:23:21;;;;;;;1.30;0.77;;;11.00;99.70;;;;;;5085495;28;20720;-95
2021/01/22 08:25:49;;;;;;;1.33;0.80;;;11.10;99.60;;;;;;5089969;28;20632;-95
2021/01/22 08:28:16;;;;;;;0.70;0.70;;;11.20;99.30;;;;;;5093638;28;20632;-95
2021/01/22 08:30:43;;;;;;;1.50;0.67;;;11.30;99.30;;;;;;5086897;28;20716;-94
2021/01/22 08:33:11;;;;;;;0.50;0.50;;;11.30;99.20;;;;;;5093665;28;20646;-95
2021/01/22 08:35:45;;;;;;;1.03;0.60;;;11.40;98.90;;;;;;5093701;28;20969;-94
2021/01/22 08:38:13;;;;;;;1.87;0.87;;;11.50;98.50;;;;;;5084464;28;20615;-95
2021/01/22 08:40:43;;;;;;;0.83;0.80;;;11.60;98.30;;;;;;5086149;28;20639;-93
2021/01/22 08:43:19;;;;;;;1.13;0.63;;;11.70;98.20;;;;;;5087429;28;20725;-95
2021/01/22 08:46:06;;;;;;;1.23;0.77;;;11.80;97.90;;;;;;5085703;28;20640;-96
2021/01/22 08:48:33;;;;;;;0.80;0.80;;;11.90;97.90;;;;;;5086276;28;20716;-96
2021/01/22 08:51:01;;;;;;;3.10;0.60;;;12.00;97.90;;;;;;5088885;28;20649;-96
2021/01/22 08:53:30;;;;;;;1.13;0.87;;;12.10;97.40;;;;;;5093895;28;20647;-95
2021/01/22 08:56:14;;;;;;;0.80;0.67;;;12.10;97.20;;;;;;5092034;28;20689;-95
2021/01/22 08:59:26;;;;;;;8.60;0.77;;;12.20;97.00;;;;;;5091816;28;20640;-95
2021/01/22 09:01:55;;;;;;;3.07;1.00;;;12.40;97.20;;;;;;5076919;28;20665;-95
2021/01/22 09:04:30;;;;;;;2.20;0.90;;;12.50;96.70;;;;;;5086975;28;20631;-95
2021/01/22 09:07:06;;;;;;;0.87;0.60;;;12.80;96.90;;;;;;5088680;28;20658;-94
2021/01/22 09:09:40;;;;;;;3.90;0.90;;;12.90;96.20;;;;;;5090400;28;20623;-94
2021/01/22 09:12:14;;;;;;;3.73;0.60;;;12.90;95.90;;;;;;5080038;28;20735;-96
2021/01/22 09:14:53;;;;;;;2.63;1.00;;;12.80;96.10;;;;;;5083691;28;20717;-95
2021/01/22 09:17:25;;;;;;;1.80;0.83;;;12.50;96.10;;;;;;5071844;28;20670;-94
2021/01/22 09:19:58;;;;;;;0.60;0.50;;;12.70;96.40;;;;;;5094469;28;21229;-94
2021/01/22 09:22:30;;;;;;;2.03;0.80;;;12.70;96.00;;;;;;5098002;28;20727;-95
2021/01/22 09:24:57;;;;;;;1.17;0.80;;;12.50;96.30;;;;;;5094630;28;20640;-95
2021/01/22 09:27:26;;;;;;;3.10;0.90;;;12.40;96.20;;;;;;5087951;28;20650;-96
2021/01/22 09:29:55;;;;;;;2.27;1.10;;;12.40;96.30;;;;;;5080586;28;20660;-95
2021/01/22 09:32:26;;;;;;;0.90;0.80;;;12.40;96.50;;;;;;5084655;28;20637;-95
2021/01/22 09:34:53;;;;;;;0.97;0.87;;;12.40;96.20;;;;;;5093108;28;20723;-96
2021/01/22 09:37:21;;;;;;;3.17;1.00;;;12.60;96.20;;;;;;5092540;28;20688;-95
2021/01/22 09:40:01;;;;;;;1.70;0.73;;;12.70;96.10;;;;;;5081088;28;20586;-95
2021/01/22 09:42:27;;;;;;;1.53;0.80;;;12.80;95.80;;;;;;5077161;28;21127;-95
2021/01/22 09:44:58;;;;;;;2.80;0.87;;;12.80;95.70;;;;;;5070920;28;20693;-96
2021/01/22 09:47:27;;;;;;;0.90;0.67;;;13.10;95.60;;;;;;5072290;28;20705;-96
2021/01/22 09:50:00;;;;;;;4.43;0.80;;;13.10;95.20;;;;;;5070392;28;20648;-95
2021/01/22 09:55:15;;;;;;;1.17;0.90;;;13.30;95.30;;;;;;5082616;28;20639;-95
2021/01/22 09:57:42;;;;;;;3.93;1.30;;;13.40;94.60;;;;;;5081091;28;20660;-94
2021/01/22 10:00:12;;;;;;;2.30;0.73;;;13.60;95.00;;;;;;5075700;28;21246;-94
2021/01/22 10:02:38;;;;;;;1.57;0.90;;;13.70;94.50;;;;;;5071407;28;20633;-95
2021/01/22 10:05:07;;;;;;;2.53;1.07;;;13.70;94.70;;;;;;5068523;28;20640;-95
2021/01/22 10:07:35;;;;;;;5.60;1.03;;;13.70;94.60;;;;;;5071289;28;21064;-93
2021/01/22 10:10:04;;;;;;;4.00;1.27;;;13.60;94.90;;;;;;5074047;28;20640;-94
2021/01/22 10:12:33;;;;;;;7.07;1.00;;;13.80;94.70;;;;;;5066816;28;20684;-93
2021/01/22 10:15:16;;;;;;;2.87;1.33;;;13.90;94.10;;;;;;5078399;28;20612;-95
2021/01/22 10:17:48;;;;;;;2.67;1.30;;;14.00;94.30;;;;;;5086348;28;20691;-96
2021/01/22 10:20:18;;;;;;;3.03;2.73;;;14.00;94.30;;;;;;5087529;28;20622;-95
2021/01/22 10:25:38;;;;;;;2.00;1.10;;;14.00;94.10;;;;;;5087196;28;20652;-95
2021/01/22 10:28:10;;;;;;;1.30;1.20;;;13.70;94.30;;;;;;5073199;28;20671;-96
2021/01/22 10:30:36;;;;;;;1.83;1.10;;;13.70;94.70;;;;;;5070482;28;21135;-94
2021/01/22 10:33:17;;;;;;;1.43;1.33;;;13.70;94.70;;;;;;5069830;28;20653;-95
2021/01/22 10:35:44;;;;;;;2.87;1.10;;;13.60;94.80;;;;;;5068449;28;20645;-94
2021/01/22 10:38:11;;;;;;;1.30;1.17;;;13.50;94.60;;;;;;5063043;28;20757;-95
2021/01/22 10:40:43;;;;;;;1.57;1.10;;;13.40;94.80;;;;;;5070207;28;20648;-94
2021/01/22 10:43:10;;;;;;;1.80;1.10;;;13.40;95.00;;;;;;5075876;28;20740;-95
2021/01/22 10:45:37;;;;;;;3.73;3.43;;;13.70;95.00;;;;;;5077453;28;20914;-95
2021/01/22 10:48:09;;;;;;;3.60;1.50;;;13.80;95.00;;;;;;5075261;28;20653;-94
2021/01/22 10:50:38;;;;;;;0.90;0.90;;;13.80;94.60;;;;;;5077337;28;20640;-94
2021/01/22 10:53:04;;;;;;;2.70;1.47;;;13.90;94.40;;;;;;5070977;28;20733;-94
2021/01/22 10:55:33;;;;;;;2.20;1.50;;;14.20;94.00;;;;;;5076276;28;20628;-94
2021/01/22 10:58:01;;;;;;;1.43;1.27;;;14.60;93.30;;;;;;5076929;28;21215;-94
2021/01/22 11:00:29;;;;;;;1.10;1.00;;;14.70;93.00;;;;;;5079828;28;20716;-94
2021/01/22 11:03:01;;;;;;;0.70;0.70;;;14.80;92.90;;;;;;5075386;28;20663;-95
2021/01/22 11:05:30;;;;;;;3.10;1.00;;;15.20;92.70;;;;;;5072813;28;20625;-96
2021/01/22 11:07:59;;;;;;;2.83;1.00;;;15.40;92.30;;;;;;5068586;28;20740;-95
2021/01/22 11:10:28;;;;;;;0.80;0.80;;;15.60;92.00;;;;;;5074579;28;20656;-95
2021/01/22 11:12:56;;;;;;;2.43;1.10;;;15.60;91.90;;;;;;5070221;28;20641;-96
2021/01/22 11:15:25;;;;;;;0.77;0.73;;;15.50;91.80;;;;;;5076583;28;20625;-96
2021/01/22 11:17:53;;;;;;;0.70;0.70;;;15.50;91.80;;;;;;5074331;28;20692;-93
2021/01/22 11:20:31;;;;;;;1.00;0.80;;;15.50;91.30;;;;;;5078782;28;20656;-95
2021/01/22 11:22:58;;;;;;;1.80;0.87;;;15.60;91.50;;;;;;5074448;28;20660;-95
2021/01/22 11:25:28;;;;;;;2.40;2.20;;;15.50;91.40;;;;;;5083035;28;20652;-95
2021/01/22 11:27:55;;;;;;;2.00;1.90;;;15.30;91.60;;;;;;5091390;28;20640;-95
2021/01/22 11:30:34;;;;;;;3.17;2.97;;;15.10;92.40;;;;;;5088578;28;20593;-94
2021/01/22 11:33:09;;;;;;;3.50;3.20;;;15.10;91.90;;;;;;5076551;28;20631;-95
2021/01/22 11:35:35;;;;;;;5.67;4.70;;;15.10;92.40;;;;;;5062153;28;20635;-94
2021/01/22 11:38:02;;;;;;;1.70;1.27;;;15.00;92.80;;;;;;5063890;28;20673;-95
2021/01/22 11:40:32;;;;;;;2.03;1.10;;;15.20;92.70;;;;;;5066327;28;20972;-95
2021/01/22 11:42:59;;;;;;;1.50;1.00;;;15.50;91.80;;;;;;5064467;28;20640;-95
2021/01/22 11:45:27;;;;;;;1.10;1.00;;;15.70;92.10;;;;;;5064605;28;20623;-96
2021/01/22 11:47:55;;;;;;;1.20;1.10;;;16.00;91.50;;;;;;5062165;28;20684;-95
2021/01/22 11:50:23;;;;;;;1.90;1.03;;;15.90;91.20;;;;;;5072207;28;20617;-95
2021/01/22 11:52:49;;;;;;;1.10;1.00;;;15.70;91.40;;;;;;5071910;28;20639;-95
2021/01/22 11:55:16;;;;;;;1.90;0.93;;;15.80;91.20;;;;;;5071356;28;20644;-95
2021/01/22 11:57:43;;;;;;;1.90;1.47;;;15.70;91.30;;;;;;5070190;28;20660;-96
2021/01/22 12:00:11;;;;;;;1.30;1.20;;;15.60;90.70;;;;;;5071871;28;20720;-95
2021/01/22 12:02:37;;;;;;;1.00;0.83;;;15.40;91.40;;;;;;5068440;28;20627;-95
2021/01/22 12:05:05;;;;;;;0.70;0.70;;;15.20;91.10;;;;;;5070846;28;20655;-93
2021/01/22 12:07:34;;;;;;;2.43;1.10;;;14.90;91.10;;;;;;5068527;28;20652;-94
2021/01/22 12:10:00;;;;;;;2.43;1.20;;;14.90;91.40;;;;;;5066651;28;21016;-94
2021/01/22 12:12:28;;;;;;;3.60;0.70;;;15.10;91.40;;;;;;5063582;28;20702;-95
2021/01/22 12:14:56;;;;;;;0.90;0.70;;;15.20;91.00;;;;;;5064134;28;20612;-94
2021/01/22 12:17:22;;;;;;;2.13;0.70;;;15.40;90.50;;;;;;5060115;28;20675;-95
2021/01/22 12:19:50;;;;;;;2.07;1.10;;;15.60;90.30;;;;;;5073744;28;20635;-94
2021/01/22 12:22:18;;;;;;;0.90;0.77;;;15.60;89.90;;;;;;5067234;28;20642;-94
2021/01/22 12:24:46;;;;;;;0.93;0.83;;;15.50;89.10;;;;;;5067146;28;20645;-94
2021/01/22 12:27:13;;;;;;;1.50;0.70;;;15.40;89.20;;;;;;5071854;28;20695;-95
2021/01/22 12:29:40;;;;;;;3.20;2.90;;;15.40;89.70;;;;;;5070437;28;20631;-94
2021/01/22 12:32:06;;;;;;;1.93;0.90;;;15.50;89.00;;;;;;5067661;28;20676;-94
2021/01/22 12:34:36;;;;;;;1.83;0.90;;;15.60;88.00;;;;;;5072473;28;21178;-94
2021/01/22 12:37:02;;;;;;;1.80;1.43;;;15.50;88.20;;;;;;5067341;28;20677;-96
2021/01/22 12:39:30;;;;;;;1.27;0.87;;;15.50;88.10;;;;;;5068130;28;21019;-94
2021/01/22 12:41:57;;;;;;;0.90;0.60;;;15.60;87.30;;;;;;5065053;28;21045;-95
2021/01/22 12:44:24;;;;;;;0.70;0.70;;;15.60;86.90;;;;;;5067623;28;20664;-96
2021/01/22 12:46:50;;;;;;;1.90;0.90;;;15.90;86.50;;;;;;5067187;28;20661;-94
2021/01/22 12:49:17;;;;;;;0.80;0.80;;;16.60;84.70;;;;;;5066773;28;20633;-95
2021/01/22 12:51:43;;;;;;;0.90;0.90;;;17.40;81.90;;;;;;5064515;28;20618;-95
2021/01/22 12:54:10;;;;;;;1.10;0.70;;;18.10;79.20;;;;;;5072846;28;21273;-96
2021/01/22 12:56:41;;;;;;;0.70;0.60;;;17.50;78.10;;;;;;5062214;28;20748;-94
2021/01/22 12:59:12;;;;;;;3.23;1.50;;;16.80;80.00;;;;;;5069876;28;20733;-95
2021/01/22 13:01:39;;;;;;;1.10;0.70;;;16.60;80.20;;;;;;5068793;28;20640;-95
2021/01/22 13:04:08;;;;;;;1.80;0.73;;;16.40;80.90;;;;;;5072980;28;20743;-95
2021/01/22 13:06:35;;;;;;;1.60;0.73;;;16.10;81.50;;;;;;5071861;28;21233;-96
2021/01/22 13:09:01;;;;;;;1.10;0.80;;;15.90;82.80;;;;;;5077665;28;20985;-93
2021/01/22 13:11:28;;;;;;;2.40;1.10;;;15.70;83.40;;;;;;5067292;28;20621;-94
2021/01/22 13:13:55;;;;;;;4.53;0.70;;;15.50;84.60;;;;;;5073056;28;20637;-96
2021/01/22 13:16:23;;;;;;;1.90;1.10;;;15.40;85.00;;;;;;5075495;28;20664;-94
2021/01/22 13:18:50;;;;;;;0.70;0.60;;;15.40;85.50;;;;;;5072075;28;20656;-94
2021/01/22 13:21:17;;;;;;;1.87;0.93;;;15.30;83.90;;;;;;5077058;28;20832;-95
2021/01/22 13:23:46;;;;;;;2.77;1.83;;;15.40;85.80;;;;;;5067148;28;20716;-95
2021/01/22 13:26:13;;;;;;;1.17;0.90;;;15.30;84.60;;;;;;5078810;28;20635;-96
2021/01/22 13:31:56;;;;;;;2.20;0.90;;;15.20;84.90;;;;;;5093744;28;20680;-96
2021/01/22 13:35:02;;;;;;;0.70;0.50;;;15.20;85.30;;;;;;5096804;28;20612;-95
2021/01/22 13:37:44;;;;;;;1.30;0.60;;;15.30;84.40;;;;;;5084131;28;20649;-94